This is the latest recevied weather packets stored in our database for station/object KE8RXN. If no packets are shown the sender has not sent any weather packets the latest 1 day(s).
| Time | Temp. | Humidity | Pressure | Rain* | Wind** | Luminosity | Snow |
|---|---|---|---|---|---|---|---|
| 1778079425 | 10° C | 45% | 1016.9 hPa | 0 mm | - | 756 W/m² | - |
| 1778077307 | 10.56° C | 48% | 1016.7 hPa | 0 mm | - | 630 W/m² | - |
| 1778076097 | 10° C | 51% | 1016.6 hPa | 0 mm | - | 559 W/m² | - |
| 1778075490 | 8.89° C | 58% | 1016.5 hPa | 0 mm | - | 503 W/m² | - |
| 1778074580 | 8.33° C | 64% | 1016.3 hPa | 0 mm | - | 403 W/m² | - |
| 1778071250 | 6.67° C | 71% | 1016.3 hPa | 0 mm | - | 212 W/m² | - |
| 1778068225 | 5° C | 75% | 1015.7 hPa | 0 mm | - | 49 W/m² | - |
| 1778067015 | 3.89° C | 77% | 1015.3 hPa | 0 mm | - | 36 W/m² | - |
| 1778066409 | 3.33° C | 82% | 1015.2 hPa | 0 mm | - | 28 W/m² | - |
| 1778066107 | 2.22° C | 84% | 1015.1 hPa | 0 mm | - | 20 W/m² | - |
| 1778064894 | 1.67° C | 86% | 1014.7 hPa | 0 mm | - | 12 W/m² | - |
| 1778063381 | 1.11° C | 88% | 1014.9 hPa | 0 mm | - | 0 W/m² | - |
| 1778063079 | 1.11° C | 87% | 1014.8 hPa | 0 mm | - | 0 W/m² | - |
| 1778062776 | 1.67° C | 86% | 1014.9 hPa | 0 mm | - | 0 W/m² | - |
| 1778062170 | 2.22° C | 84% | 1014.7 hPa | 0 mm | - | 0 W/m² | - |
| 1778061868 | 2.22° C | 84% | 1014.7 hPa | 0 mm | - | 0 W/m² | - |
| 1778061566 | 2.22° C | 84% | 1014.5 hPa | 0 mm | - | 0 W/m² | - |
| 1778061264 | 2.78° C | 83% | 1014.6 hPa | 0 mm | - | 0 W/m² | - |
| 1778060960 | 2.78° C | 84% | 1014.5 hPa | 0 mm | - | 0 W/m² | - |
| 1778060659 | 2.78° C | 84% | 1014.4 hPa | 0 mm | - | 0 W/m² | - |
| 1778060356 | 2.78° C | 84% | 1014.5 hPa | 0 mm | - | 0 W/m² | - |
| 1778060054 | 2.78° C | 84% | 1014.4 hPa | 0 mm | - | 0 W/m² | - |
| 1778058238 | 3.33° C | 82% | 1014 hPa | 0 mm | - | 0 W/m² | - |
| 1778057631 | 2.78° C | 83% | 1013.9 hPa | 0 mm | - | 0 W/m² | - |
| 1778056721 | 3.33° C | 82% | 1013.7 hPa | 0 mm | - | 0 W/m² | - |
* Rain latest hour (hover to see other rain measurements)
** Current wind speed in m/s (hover to see current wind gust speed)